Sacramento, California
Traffic Map
Current Weather Conditions
Sacramento, California
Overcast
Overcast
12°
Feels Like: 12°
Wind Chill: 12° Ceiling: 1100
Heat Index: 12° Visibility: 10mi
Dew Point: Wind: 13mph
Humidity: 83% Direction: 200° (SSW)
Pressure: 29.93in Gusts: 21mph
Raw Report DataKSAC 261053Z AUTO 20011G18KT 10SM OVC011 12/09 A2993 RMK AO2 SLP135 T01220094
Traffic Incident Summary
Active as of:
Severity:
Category:
InformationThere was an issue retrieving the traffic information for this location. Please try a different location or try again shortly.
Advertisements
Track Severe Weather on mobile